sensor_id;sensor_type;location;lat;lon;timestamp;temperature;humidity
39931;DHT22;26635;-35.248;149.138;2023-04-25T00:00:00;13.50;90.40
39931;DHT22;26635;-35.248;149.138;2023-04-25T00:02:31;13.60;90.40
39931;DHT22;26635;-35.248;149.138;2023-04-25T00:05:03;13.80;89.60
39931;DHT22;26635;-35.248;149.138;2023-04-25T00:07:35;14.00;88.70
39931;DHT22;26635;-35.248;149.138;2023-04-25T00:10:06;14.10;88.90
39931;DHT22;26635;-35.248;149.138;2023-04-25T00:12:39;14.30;87.00
39931;DHT22;26635;-35.248;149.138;2023-04-25T00:15:11;14.50;87.00
39931;DHT22;26635;-35.248;149.138;2023-04-25T00:17:42;14.60;86.70
39931;DHT22;26635;-35.248;149.138;2023-04-25T00:20:16;14.80;87.20
39931;DHT22;26635;-35.248;149.138;2023-04-25T00:22:48;14.90;86.10
39931;DHT22;26635;-35.248;149.138;2023-04-25T00:25:19;15.10;86.70
39931;DHT22;26635;-35.248;149.138;2023-04-25T00:27:50;15.30;85.80
39931;DHT22;26635;-35.248;149.138;2023-04-25T00:30:21;15.30;84.10
39931;DHT22;26635;-35.248;149.138;2023-04-25T00:32:52;15.40;84.10
39931;DHT22;26635;-35.248;149.138;2023-04-25T00:35:24;15.50;84.50
39931;DHT22;26635;-35.248;149.138;2023-04-25T00:37:55;15.70;83.20
39931;DHT22;26635;-35.248;149.138;2023-04-25T00:40:26;15.80;84.00
39931;DHT22;26635;-35.248;149.138;2023-04-25T00:42:59;15.90;82.20
39931;DHT22;26635;-35.248;149.138;2023-04-25T00:45:31;16.00;82.50
39931;DHT22;26635;-35.248;149.138;2023-04-25T00:48:03;16.20;81.90
39931;DHT22;26635;-35.248;149.138;2023-04-25T00:50:36;16.30;82.00
39931;DHT22;26635;-35.248;149.138;2023-04-25T00:53:07;16.40;80.90
39931;DHT22;26635;-35.248;149.138;2023-04-25T00:55:52;16.60;81.70
39931;DHT22;26635;-35.248;149.138;2023-04-25T00:58:23;16.80;80.50
39931;DHT22;26635;-35.248;149.138;2023-04-25T01:00:54;16.90;79.90
39931;DHT22;26635;-35.248;149.138;2023-04-25T01:03:28;17.10;78.70
39931;DHT22;26635;-35.248;149.138;2023-04-25T01:06:01;17.30;77.90
39931;DHT22;26635;-35.248;149.138;2023-04-25T01:08:32;17.40;77.90
39931;DHT22;26635;-35.248;149.138;2023-04-25T01:11:05;17.50;77.80
39931;DHT22;26635;-35.248;149.138;2023-04-25T01:13:36;17.50;76.30
39931;DHT22;26635;-35.248;149.138;2023-04-25T01:16:07;17.60;78.40
39931;DHT22;26635;-35.248;149.138;2023-04-25T01:18:41;17.70;76.90
39931;DHT22;26635;-35.248;149.138;2023-04-25T01:21:13;17.80;75.80
39931;DHT22;26635;-35.248;149.138;2023-04-25T01:23:43;17.90;75.50
39931;DHT22;26635;-35.248;149.138;2023-04-25T01:26:15;18.10;75.50
39931;DHT22;26635;-35.248;149.138;2023-04-25T01:28:46;18.20;75.60
39931;DHT22;26635;-35.248;149.138;2023-04-25T01:31:19;18.30;74.60
39931;DHT22;26635;-35.248;149.138;2023-04-25T01:33:49;18.40;73.90
39931;DHT22;26635;-35.248;149.138;2023-04-25T01:36:21;18.50;68.80
39931;DHT22;26635;-35.248;149.138;2023-04-25T01:38:52;18.50;69.70
39931;DHT22;26635;-35.248;149.138;2023-04-25T01:41:23;18.50;69.90
39931;DHT22;26635;-35.248;149.138;2023-04-25T01:43:54;18.60;70.70
39931;DHT22;26635;-35.248;149.138;2023-04-25T01:46:26;18.70;69.60
39931;DHT22;26635;-35.248;149.138;2023-04-25T01:48:57;18.70;68.20
39931;DHT22;26635;-35.248;149.138;2023-04-25T01:51:28;18.80;68.90
39931;DHT22;26635;-35.248;149.138;2023-04-25T01:54:00;18.90;68.70
39931;DHT22;26635;-35.248;149.138;2023-04-25T01:56:32;19.00;65.50
39931;DHT22;26635;-35.248;149.138;2023-04-25T01:59:04;19.00;65.50
39931;DHT22;26635;-35.248;149.138;2023-04-25T02:01:36;19.10;64.20
39931;DHT22;26635;-35.248;149.138;2023-04-25T02:04:07;19.10;65.50
39931;DHT22;26635;-35.248;149.138;2023-04-25T02:06:39;19.10;62.50
39931;DHT22;26635;-35.248;149.138;2023-04-25T02:09:10;19.10;64.30
39931;DHT22;26635;-35.248;149.138;2023-04-25T02:11:43;19.20;63.30
39931;DHT22;26635;-35.248;149.138;2023-04-25T02:14:15;19.30;63.60
39931;DHT22;26635;-35.248;149.138;2023-04-25T02:16:46;19.30;63.70
39931;DHT22;26635;-35.248;149.138;2023-04-25T02:19:17;19.40;63.00
39931;DHT22;26635;-35.248;149.138;2023-04-25T02:21:49;19.40;62.00
39931;DHT22;26635;-35.248;149.138;2023-04-25T02:24:19;19.40;64.00
39931;DHT22;26635;-35.248;149.138;2023-04-25T02:26:50;19.50;63.50
39931;DHT22;26635;-35.248;149.138;2023-04-25T02:29:22;19.60;63.50
39931;DHT22;26635;-35.248;149.138;2023-04-25T02:31:54;19.60;63.00
39931;DHT22;26635;-35.248;149.138;2023-04-25T02:34:26;19.70;62.40
39931;DHT22;26635;-35.248;149.138;2023-04-25T02:36:56;19.80;62.80
39931;DHT22;26635;-35.248;149.138;2023-04-25T02:39:28;19.80;62.60
39931;DHT22;26635;-35.248;149.138;2023-04-25T02:41:59;19.80;62.70
39931;DHT22;26635;-35.248;149.138;2023-04-25T02:44:30;19.90;61.50
39931;DHT22;26635;-35.248;149.138;2023-04-25T02:47:02;20.00;61.20
39931;DHT22;26635;-35.248;149.138;2023-04-25T02:49:32;20.00;61.80
39931;DHT22;26635;-35.248;149.138;2023-04-25T02:52:04;20.10;61.60
39931;DHT22;26635;-35.248;149.138;2023-04-25T02:54:35;20.10;61.90
39931;DHT22;26635;-35.248;149.138;2023-04-25T02:57:07;20.20;62.80
39931;DHT22;26635;-35.248;149.138;2023-04-25T02:59:39;20.30;61.80
39931;DHT22;26635;-35.248;149.138;2023-04-25T03:02:10;20.30;61.10
39931;DHT22;26635;-35.248;149.138;2023-04-25T03:04:41;20.30;60.80
39931;DHT22;26635;-35.248;149.138;2023-04-25T03:07:12;20.10;60.10
39931;DHT22;26635;-35.248;149.138;2023-04-25T03:09:43;20.10;61.50
39931;DHT22;26635;-35.248;149.138;2023-04-25T03:12:14;20.20;62.00
39931;DHT22;26635;-35.248;149.138;2023-04-25T03:14:45;20.20;60.80
39931;DHT22;26635;-35.248;149.138;2023-04-25T03:17:16;20.30;61.40
39931;DHT22;26635;-35.248;149.138;2023-04-25T03:19:48;20.40;62.30
39931;DHT22;26635;-35.248;149.138;2023-04-25T03:22:19;20.50;62.00
39931;DHT22;26635;-35.248;149.138;2023-04-25T03:24:50;20.60;61.90
39931;DHT22;26635;-35.248;149.138;2023-04-25T03:27:21;20.60;61.30
39931;DHT22;26635;-35.248;149.138;2023-04-25T03:29:52;20.70;61.10
39931;DHT22;26635;-35.248;149.138;2023-04-25T03:32:23;20.80;60.30
39931;DHT22;26635;-35.248;149.138;2023-04-25T03:34:54;20.80;59.40
39931;DHT22;26635;-35.248;149.138;2023-04-25T03:37:25;20.80;59.70
39931;DHT22;26635;-35.248;149.138;2023-04-25T03:39:56;20.80;60.10
39931;DHT22;26635;-35.248;149.138;2023-04-25T03:42:27;20.80;59.80
39931;DHT22;26635;-35.248;149.138;2023-04-25T03:44:58;20.80;57.30
39931;DHT22;26635;-35.248;149.138;2023-04-25T03:47:29;20.70;57.80
39931;DHT22;26635;-35.248;149.138;2023-04-25T03:50:00;20.80;58.80
39931;DHT22;26635;-35.248;149.138;2023-04-25T03:52:32;20.80;59.10
39931;DHT22;26635;-35.248;149.138;2023-04-25T03:55:04;20.80;57.90
39931;DHT22;26635;-35.248;149.138;2023-04-25T03:57:35;20.80;59.00
39931;DHT22;26635;-35.248;149.138;2023-04-25T04:00:06;20.90;59.40
39931;DHT22;26635;-35.248;149.138;2023-04-25T04:02:37;21.00;58.70
39931;DHT22;26635;-35.248;149.138;2023-04-25T04:05:12;20.90;56.40
39931;DHT22;26635;-35.248;149.138;2023-04-25T04:07:43;20.80;56.20
39931;DHT22;26635;-35.248;149.138;2023-04-25T04:10:15;20.80;56.90
39931;DHT22;26635;-35.248;149.138;2023-04-25T04:12:46;20.70;57.80
39931;DHT22;26635;-35.248;149.138;2023-04-25T04:15:17;20.70;58.20
39931;DHT22;26635;-35.248;149.138;2023-04-25T04:17:49;20.70;56.40
39931;DHT22;26635;-35.248;149.138;2023-04-25T04:20:20;20.60;57.50
39931;DHT22;26635;-35.248;149.138;2023-04-25T04:22:50;20.60;56.40
39931;DHT22;26635;-35.248;149.138;2023-04-25T04:25:21;20.60;57.10
39931;DHT22;26635;-35.248;149.138;2023-04-25T04:27:52;20.60;57.70
39931;DHT22;26635;-35.248;149.138;2023-04-25T04:30:25;20.70;57.40
39931;DHT22;26635;-35.248;149.138;2023-04-25T04:32:59;20.60;56.20
39931;DHT22;26635;-35.248;149.138;2023-04-25T04:35:30;20.60;56.10
39931;DHT22;26635;-35.248;149.138;2023-04-25T04:38:01;20.60;57.70
39931;DHT22;26635;-35.248;149.138;2023-04-25T04:40:31;20.70;57.30
39931;DHT22;26635;-35.248;149.138;2023-04-25T04:43:02;20.60;58.70
39931;DHT22;26635;-35.248;149.138;2023-04-25T04:45:32;20.60;57.40
39931;DHT22;26635;-35.248;149.138;2023-04-25T04:48:05;20.60;57.70
39931;DHT22;26635;-35.248;149.138;2023-04-25T04:50:35;20.60;57.10
39931;DHT22;26635;-35.248;149.138;2023-04-25T04:53:08;20.60;57.20
39931;DHT22;26635;-35.248;149.138;2023-04-25T04:55:39;20.50;57.80
39931;DHT22;26635;-35.248;149.138;2023-04-25T04:58:11;20.50;56.80
39931;DHT22;26635;-35.248;149.138;2023-04-25T05:00:45;20.60;57.10
39931;DHT22;26635;-35.248;149.138;2023-04-25T05:03:16;20.60;57.00
39931;DHT22;26635;-35.248;149.138;2023-04-25T05:05:47;20.60;57.80
39931;DHT22;26635;-35.248;149.138;2023-04-25T05:08:21;20.60;57.90
39931;DHT22;26635;-35.248;149.138;2023-04-25T05:10:57;20.60;58.00
39931;DHT22;26635;-35.248;149.138;2023-04-25T05:13:28;20.60;58.50
39931;DHT22;26635;-35.248;149.138;2023-04-25T05:16:01;20.50;58.40
39931;DHT22;26635;-35.248;149.138;2023-04-25T05:18:31;20.50;57.70
39931;DHT22;26635;-35.248;149.138;2023-04-25T05:21:02;20.40;58.00
39931;DHT22;26635;-35.248;149.138;2023-04-25T05:23:33;20.30;58.80
39931;DHT22;26635;-35.248;149.138;2023-04-25T05:26:05;20.30;58.50
39931;DHT22;26635;-35.248;149.138;2023-04-25T05:28:36;20.20;57.80
39931;DHT22;26635;-35.248;149.138;2023-04-25T05:31:07;20.20;59.10
39931;DHT22;26635;-35.248;149.138;2023-04-25T05:33:39;20.20;59.50
39931;DHT22;26635;-35.248;149.138;2023-04-25T05:36:10;20.10;59.60
39931;DHT22;26635;-35.248;149.138;2023-04-25T05:38:41;20.10;58.20
39931;DHT22;26635;-35.248;149.138;2023-04-25T05:41:12;20.10;59.00
39931;DHT22;26635;-35.248;149.138;2023-04-25T05:43:42;20.00;59.40
39931;DHT22;26635;-35.248;149.138;2023-04-25T05:46:17;20.00;58.90
39931;DHT22;26635;-35.248;149.138;2023-04-25T05:48:48;19.90;59.90
39931;DHT22;26635;-35.248;149.138;2023-04-25T05:51:19;19.90;59.80
39931;DHT22;26635;-35.248;149.138;2023-04-25T05:53:50;19.80;60.80
39931;DHT22;26635;-35.248;149.138;2023-04-25T05:56:21;19.80;61.20
39931;DHT22;26635;-35.248;149.138;2023-04-25T05:58:52;19.80;61.80
39931;DHT22;26635;-35.248;149.138;2023-04-25T06:01:23;19.80;62.30
39931;DHT22;26635;-35.248;149.138;2023-04-25T06:03:56;19.70;62.10
39931;DHT22;26635;-35.248;149.138;2023-04-25T06:06:29;19.70;62.40
39931;DHT22;26635;-35.248;149.138;2023-04-25T06:09:00;19.60;61.70
39931;DHT22;26635;-35.248;149.138;2023-04-25T06:11:31;19.70;62.60
39931;DHT22;26635;-35.248;149.138;2023-04-25T06:14:05;19.60;61.00
39931;DHT22;26635;-35.248;149.138;2023-04-25T06:16:41;19.60;60.80
39931;DHT22;26635;-35.248;149.138;2023-04-25T06:19:12;19.60;62.00
39931;DHT22;26635;-35.248;149.138;2023-04-25T06:21:45;19.60;62.40
39931;DHT22;26635;-35.248;149.138;2023-04-25T06:24:18;19.60;63.20
39931;DHT22;26635;-35.248;149.138;2023-04-25T06:26:55;19.50;63.20
39931;DHT22;26635;-35.248;149.138;2023-04-25T06:29:27;19.50;63.70
39931;DHT22;26635;-35.248;149.138;2023-04-25T06:32:02;19.40;63.90
39931;DHT22;26635;-35.248;149.138;2023-04-25T06:34:44;19.30;64.40
39931;DHT22;26635;-35.248;149.138;2023-04-25T06:37:17;19.20;64.60
39931;DHT22;26635;-35.248;149.138;2023-04-25T06:39:55;19.20;63.80
39931;DHT22;26635;-35.248;149.138;2023-04-25T06:42:27;19.20;64.70
39931;DHT22;26635;-35.248;149.138;2023-04-25T06:44:59;19.10;65.60
39931;DHT22;26635;-35.248;149.138;2023-04-25T06:47:30;19.00;65.60
39931;DHT22;26635;-35.248;149.138;2023-04-25T06:50:02;18.90;64.70
39931;DHT22;26635;-35.248;149.138;2023-04-25T06:52:36;18.90;64.80
39931;DHT22;26635;-35.248;149.138;2023-04-25T06:55:08;18.80;65.00
39931;DHT22;26635;-35.248;149.138;2023-04-25T06:57:39;18.70;65.40
39931;DHT22;26635;-35.248;149.138;2023-04-25T07:00:10;18.60;66.00
39931;DHT22;26635;-35.248;149.138;2023-04-25T07:02:42;18.50;66.50
39931;DHT22;26635;-35.248;149.138;2023-04-25T07:05:16;18.40;66.70
39931;DHT22;26635;-35.248;149.138;2023-04-25T07:07:48;18.30;67.30
39931;DHT22;26635;-35.248;149.138;2023-04-25T07:10:21;18.20;67.30
39931;DHT22;26635;-35.248;149.138;2023-04-25T07:12:55;18.10;68.10
39931;DHT22;26635;-35.248;149.138;2023-04-25T07:15:28;18.00;69.80
39931;DHT22;26635;-35.248;149.138;2023-04-25T07:18:01;17.90;70.00
39931;DHT22;26635;-35.248;149.138;2023-04-25T07:20:34;17.80;71.00
39931;DHT22;26635;-35.248;149.138;2023-04-25T07:23:06;17.70;71.20
39931;DHT22;26635;-35.248;149.138;2023-04-25T07:25:41;17.60;71.90
39931;DHT22;26635;-35.248;149.138;2023-04-25T07:28:13;17.50;73.00
39931;DHT22;26635;-35.248;149.138;2023-04-25T07:30:57;17.40;73.20
39931;DHT22;26635;-35.248;149.138;2023-04-25T07:33:51;17.30;73.50
39931;DHT22;26635;-35.248;149.138;2023-04-25T07:36:26;17.10;73.50
39931;DHT22;26635;-35.248;149.138;2023-04-25T07:39:02;17.00;73.40
39931;DHT22;26635;-35.248;149.138;2023-04-25T07:41:36;16.90;74.20
39931;DHT22;26635;-35.248;149.138;2023-04-25T07:44:07;16.80;75.10
39931;DHT22;26635;-35.248;149.138;2023-04-25T07:46:39;16.70;75.30
39931;DHT22;26635;-35.248;149.138;2023-04-25T07:49:10;16.70;75.30
39931;DHT22;26635;-35.248;149.138;2023-04-25T07:51:44;16.50;75.80
39931;DHT22;26635;-35.248;149.138;2023-04-25T07:54:17;16.50;76.00
39931;DHT22;26635;-35.248;149.138;2023-04-25T07:56:48;16.40;77.20
39931;DHT22;26635;-35.248;149.138;2023-04-25T07:59:21;16.30;76.80
39931;DHT22;26635;-35.248;149.138;2023-04-25T08:01:55;16.20;77.00
39931;DHT22;26635;-35.248;149.138;2023-04-25T08:04:30;16.20;78.10
39931;DHT22;26635;-35.248;149.138;2023-04-25T08:07:02;16.00;77.70
39931;DHT22;26635;-35.248;149.138;2023-04-25T08:09:33;16.00;78.00
39931;DHT22;26635;-35.248;149.138;2023-04-25T08:12:05;15.90;78.70
39931;DHT22;26635;-35.248;149.138;2023-04-25T08:14:51;15.70;78.70
39931;DHT22;26635;-35.248;149.138;2023-04-25T08:17:30;15.60;79.40
39931;DHT22;26635;-35.248;149.138;2023-04-25T08:20:04;15.50;78.90
39931;DHT22;26635;-35.248;149.138;2023-04-25T08:22:38;15.50;78.80
39931;DHT22;26635;-35.248;149.138;2023-04-25T08:25:13;15.50;76.20
39931;DHT22;26635;-35.248;149.138;2023-04-25T08:27:48;15.60;75.70
39931;DHT22;26635;-35.248;149.138;2023-04-25T08:30:21;15.70;75.60
39931;DHT22;26635;-35.248;149.138;2023-04-25T08:32:53;15.70;76.40
39931;DHT22;26635;-35.248;149.138;2023-04-25T08:35:27;15.70;77.10
39931;DHT22;26635;-35.248;149.138;2023-04-25T08:38:06;15.70;76.10
39931;DHT22;26635;-35.248;149.138;2023-04-25T08:40:40;15.60;76.90
39931;DHT22;26635;-35.248;149.138;2023-04-25T08:43:15;15.60;76.00
39931;DHT22;26635;-35.248;149.138;2023-04-25T08:46:00;15.50;75.40
39931;DHT22;26635;-35.248;149.138;2023-04-25T08:48:36;15.60;75.60
39931;DHT22;26635;-35.248;149.138;2023-04-25T08:51:10;15.60;76.10
39931;DHT22;26635;-35.248;149.138;2023-04-25T08:53:50;15.60;75.30
39931;DHT22;26635;-35.248;149.138;2023-04-25T08:56:50;15.50;76.60
39931;DHT22;26635;-35.248;149.138;2023-04-25T08:59:22;15.50;77.00
39931;DHT22;26635;-35.248;149.138;2023-04-25T09:01:55;15.40;75.80
39931;DHT22;26635;-35.248;149.138;2023-04-25T09:04:33;15.40;76.60
39931;DHT22;26635;-35.248;149.138;2023-04-25T09:07:09;15.40;75.80
39931;DHT22;26635;-35.248;149.138;2023-04-25T09:09:41;15.30;76.20
39931;DHT22;26635;-35.248;149.138;2023-04-25T09:12:13;15.20;77.60
39931;DHT22;26635;-35.248;149.138;2023-04-25T09:15:03;15.20;76.80
39931;DHT22;26635;-35.248;149.138;2023-04-25T09:17:36;15.10;76.70
39931;DHT22;26635;-35.248;149.138;2023-04-25T09:20:12;15.10;76.70
39931;DHT22;26635;-35.248;149.138;2023-04-25T09:22:49;15.00;77.90
39931;DHT22;26635;-35.248;149.138;2023-04-25T09:25:24;14.90;78.50
39931;DHT22;26635;-35.248;149.138;2023-04-25T09:28:05;14.90;78.70
39931;DHT22;26635;-35.248;149.138;2023-04-25T09:30:39;14.80;77.80
39931;DHT22;26635;-35.248;149.138;2023-04-25T09:33:12;14.70;78.10
39931;DHT22;26635;-35.248;149.138;2023-04-25T09:35:50;14.60;78.80
39931;DHT22;26635;-35.248;149.138;2023-04-25T09:38:29;14.60;78.10
39931;DHT22;26635;-35.248;149.138;2023-04-25T09:41:07;14.50;78.40
39931;DHT22;26635;-35.248;149.138;2023-04-25T09:43:40;14.40;78.80
39931;DHT22;26635;-35.248;149.138;2023-04-25T09:46:34;14.40;78.00
39931;DHT22;26635;-35.248;149.138;2023-04-25T09:49:17;14.40;78.80
39931;DHT22;26635;-35.248;149.138;2023-04-25T09:52:00;14.40;79.40
39931;DHT22;26635;-35.248;149.138;2023-04-25T09:54:36;14.40;79.30
39931;DHT22;26635;-35.248;149.138;2023-04-25T09:59:50;14.50;79.60
39931;DHT22;26635;-35.248;149.138;2023-04-25T10:02:25;14.50;79.70
39931;DHT22;26635;-35.248;149.138;2023-04-25T10:05:00;14.40;80.10
39931;DHT22;26635;-35.248;149.138;2023-04-25T10:07:34;14.40;81.10
39931;DHT22;26635;-35.248;149.138;2023-04-25T10:10:15;14.40;81.10
39931;DHT22;26635;-35.248;149.138;2023-04-25T10:12:48;14.30;81.10
39931;DHT22;26635;-35.248;149.138;2023-04-25T10:15:22;14.20;81.80
39931;DHT22;26635;-35.248;149.138;2023-04-25T10:17:55;14.20;82.30
39931;DHT22;26635;-35.248;149.138;2023-04-25T10:20:29;14.20;83.20
39931;DHT22;26635;-35.248;149.138;2023-04-25T10:23:13;14.20;82.80
39931;DHT22;26635;-35.248;149.138;2023-04-25T10:25:47;14.20;83.00
39931;DHT22;26635;-35.248;149.138;2023-04-25T10:28:19;14.20;82.50
39931;DHT22;26635;-35.248;149.138;2023-04-25T10:31:00;14.20;82.70
39931;DHT22;26635;-35.248;149.138;2023-04-25T10:33:44;14.20;82.60
39931;DHT22;26635;-35.248;149.138;2023-04-25T10:36:22;14.20;82.80
39931;DHT22;26635;-35.248;149.138;2023-04-25T10:38:54;14.20;83.80
39931;DHT22;26635;-35.248;149.138;2023-04-25T10:41:32;14.10;83.90
39931;DHT22;26635;-35.248;149.138;2023-04-25T10:44:18;14.00;83.40
39931;DHT22;26635;-35.248;149.138;2023-04-25T10:46:50;14.00;83.10
39931;DHT22;26635;-35.248;149.138;2023-04-25T10:49:41;14.00;83.40
39931;DHT22;26635;-35.248;149.138;2023-04-25T10:52:26;13.90;83.10
39931;DHT22;26635;-35.248;149.138;2023-04-25T10:54:59;13.90;84.10
39931;DHT22;26635;-35.248;149.138;2023-04-25T11:00:16;13.80;83.70
39931;DHT22;26635;-35.248;149.138;2023-04-25T11:03:07;13.70;84.20
39931;DHT22;26635;-35.248;149.138;2023-04-25T11:05:40;13.70;84.40
39931;DHT22;26635;-35.248;149.138;2023-04-25T11:08:59;13.60;84.90
39931;DHT22;26635;-35.248;149.138;2023-04-25T11:11:30;13.50;85.40
39931;DHT22;26635;-35.248;149.138;2023-04-25T11:14:02;13.40;85.20
39931;DHT22;26635;-35.248;149.138;2023-04-25T11:16:33;13.40;85.30
39931;DHT22;26635;-35.248;149.138;2023-04-25T11:19:08;13.30;85.70
39931;DHT22;26635;-35.248;149.138;2023-04-25T11:21:40;13.30;86.40
39931;DHT22;26635;-35.248;149.138;2023-04-25T11:24:12;13.20;86.40
39931;DHT22;26635;-35.248;149.138;2023-04-25T11:26:45;13.10;85.70
39931;DHT22;26635;-35.248;149.138;2023-04-25T11:29:21;13.10;86.30
39931;DHT22;26635;-35.248;149.138;2023-04-25T11:31:54;13.00;87.00
39931;DHT22;26635;-35.248;149.138;2023-04-25T11:34:30;13.00;86.60
39931;DHT22;26635;-35.248;149.138;2023-04-25T11:37:02;12.90;86.80
39931;DHT22;26635;-35.248;149.138;2023-04-25T11:39:35;12.90;86.50
39931;DHT22;26635;-35.248;149.138;2023-04-25T11:42:06;12.80;86.30
39931;DHT22;26635;-35.248;149.138;2023-04-25T11:44:40;12.80;87.20
39931;DHT22;26635;-35.248;149.138;2023-04-25T11:47:12;12.70;87.30
39931;DHT22;26635;-35.248;149.138;2023-04-25T11:49:43;12.70;88.30
39931;DHT22;26635;-35.248;149.138;2023-04-25T11:52:15;12.70;87.20
39931;DHT22;26635;-35.248;149.138;2023-04-25T11:54:46;12.60;87.70
39931;DHT22;26635;-35.248;149.138;2023-04-25T11:57:19;12.60;87.90
39931;DHT22;26635;-35.248;149.138;2023-04-25T11:59:52;12.50;88.90
39931;DHT22;26635;-35.248;149.138;2023-04-25T12:02:26;12.40;88.60
39931;DHT22;26635;-35.248;149.138;2023-04-25T12:05:00;12.40;88.70
39931;DHT22;26635;-35.248;149.138;2023-04-25T12:07:50;12.30;89.00
39931;DHT22;26635;-35.248;149.138;2023-04-25T12:10:21;12.30;88.20
39931;DHT22;26635;-35.248;149.138;2023-04-25T12:12:55;12.20;88.90
39931;DHT22;26635;-35.248;149.138;2023-04-25T12:15:26;12.20;88.90
39931;DHT22;26635;-35.248;149.138;2023-04-25T12:17:57;12.20;89.90
39931;DHT22;26635;-35.248;149.138;2023-04-25T12:20:28;12.10;89.60
39931;DHT22;26635;-35.248;149.138;2023-04-25T12:22:59;12.10;89.70
39931;DHT22;26635;-35.248;149.138;2023-04-25T12:25:38;12.10;89.60
39931;DHT22;26635;-35.248;149.138;2023-04-25T12:28:22;12.00;89.20
39931;DHT22;26635;-35.248;149.138;2023-04-25T12:31:02;12.00;90.00
39931;DHT22;26635;-35.248;149.138;2023-04-25T12:33:38;11.90;90.40
39931;DHT22;26635;-35.248;149.138;2023-04-25T12:36:10;11.90;89.40
39931;DHT22;26635;-35.248;149.138;2023-04-25T12:38:44;11.80;89.80
39931;DHT22;26635;-35.248;149.138;2023-04-25T12:41:14;11.80;89.30
39931;DHT22;26635;-35.248;149.138;2023-04-25T12:43:45;11.70;90.00
39931;DHT22;26635;-35.248;149.138;2023-04-25T12:46:17;11.70;90.70
39931;DHT22;26635;-35.248;149.138;2023-04-25T12:48:48;11.60;90.40
39931;DHT22;26635;-35.248;149.138;2023-04-25T12:51:20;11.60;90.40
39931;DHT22;26635;-35.248;149.138;2023-04-25T12:53:55;11.50;90.10
39931;DHT22;26635;-35.248;149.138;2023-04-25T12:56:31;11.50;90.30
39931;DHT22;26635;-35.248;149.138;2023-04-25T12:59:03;11.40;90.50
39931;DHT22;26635;-35.248;149.138;2023-04-25T13:01:34;11.40;90.60
39931;DHT22;26635;-35.248;149.138;2023-04-25T13:04:06;11.30;90.40
39931;DHT22;26635;-35.248;149.138;2023-04-25T13:06:37;11.30;90.40
39931;DHT22;26635;-35.248;149.138;2023-04-25T13:09:09;11.30;90.80
39931;DHT22;26635;-35.248;149.138;2023-04-25T13:11:43;11.30;90.60
39931;DHT22;26635;-35.248;149.138;2023-04-25T13:14:16;11.30;91.40
39931;DHT22;26635;-35.248;149.138;2023-04-25T13:16:47;11.20;91.00
39931;DHT22;26635;-35.248;149.138;2023-04-25T13:19:18;11.20;90.80
39931;DHT22;26635;-35.248;149.138;2023-04-25T13:21:49;11.10;90.80
39931;DHT22;26635;-35.248;149.138;2023-04-25T13:24:20;11.10;90.60
39931;DHT22;26635;-35.248;149.138;2023-04-25T13:26:53;11.00;90.60
39931;DHT22;26635;-35.248;149.138;2023-04-25T13:29:24;11.00;90.50
39931;DHT22;26635;-35.248;149.138;2023-04-25T13:31:55;11.00;90.80
39931;DHT22;26635;-35.248;149.138;2023-04-25T13:34:25;11.00;91.00
39931;DHT22;26635;-35.248;149.138;2023-04-25T13:36:56;11.00;91.20
39931;DHT22;26635;-35.248;149.138;2023-04-25T13:39:26;11.00;91.20
39931;DHT22;26635;-35.248;149.138;2023-04-25T13:41:57;10.90;90.80
39931;DHT22;26635;-35.248;149.138;2023-04-25T13:44:28;10.90;91.10
39931;DHT22;26635;-35.248;149.138;2023-04-25T13:46:58;10.90;91.30
39931;DHT22;26635;-35.248;149.138;2023-04-25T13:49:30;10.80;91.50
39931;DHT22;26635;-35.248;149.138;2023-04-25T13:52:00;10.90;91.60
39931;DHT22;26635;-35.248;149.138;2023-04-25T13:54:30;10.80;91.10
39931;DHT22;26635;-35.248;149.138;2023-04-25T13:57:01;10.80;91.00
39931;DHT22;26635;-35.248;149.138;2023-04-25T13:59:31;10.80;91.00
39931;DHT22;26635;-35.248;149.138;2023-04-25T14:02:02;10.80;91.10
39931;DHT22;26635;-35.248;149.138;2023-04-25T14:04:32;10.70;91.10
39931;DHT22;26635;-35.248;149.138;2023-04-25T14:07:03;10.70;91.10
39931;DHT22;26635;-35.248;149.138;2023-04-25T14:09:34;10.60;91.10
39931;DHT22;26635;-35.248;149.138;2023-04-25T14:12:05;10.60;91.20
39931;DHT22;26635;-35.248;149.138;2023-04-25T14:14:38;10.60;91.20
39931;DHT22;26635;-35.248;149.138;2023-04-25T14:17:09;10.60;91.20
39931;DHT22;26635;-35.248;149.138;2023-04-25T14:19:40;10.50;91.70
39931;DHT22;26635;-35.248;149.138;2023-04-25T14:22:15;10.50;91.10
39931;DHT22;26635;-35.248;149.138;2023-04-25T14:24:47;10.50;91.50
39931;DHT22;26635;-35.248;149.138;2023-04-25T14:27:17;10.50;91.70
39931;DHT22;26635;-35.248;149.138;2023-04-25T14:29:48;10.50;91.20
39931;DHT22;26635;-35.248;149.138;2023-04-25T14:32:19;10.50;91.10
39931;DHT22;26635;-35.248;149.138;2023-04-25T14:34:50;10.40;91.30
39931;DHT22;26635;-35.248;149.138;2023-04-25T14:37:21;10.40;91.60
39931;DHT22;26635;-35.248;149.138;2023-04-25T14:39:52;10.40;91.60
39931;DHT22;26635;-35.248;149.138;2023-04-25T14:42:22;10.40;92.30
39931;DHT22;26635;-35.248;149.138;2023-04-25T14:44:53;10.40;91.70
39931;DHT22;26635;-35.248;149.138;2023-04-25T14:47:24;10.40;91.70
39931;DHT22;26635;-35.248;149.138;2023-04-25T14:49:54;10.40;92.10
39931;DHT22;26635;-35.248;149.138;2023-04-25T14:52:25;10.40;92.10
39931;DHT22;26635;-35.248;149.138;2023-04-25T14:54:56;10.40;91.70
39931;DHT22;26635;-35.248;149.138;2023-04-25T14:57:27;10.40;91.70
39931;DHT22;26635;-35.248;149.138;2023-04-25T14:59:57;10.30;92.20
39931;DHT22;26635;-35.248;149.138;2023-04-25T15:02:28;10.30;91.70
39931;DHT22;26635;-35.248;149.138;2023-04-25T15:05:00;10.30;91.50
39931;DHT22;26635;-35.248;149.138;2023-04-25T15:07:30;10.20;91.60
39931;DHT22;26635;-35.248;149.138;2023-04-25T15:10:01;10.20;91.80
39931;DHT22;26635;-35.248;149.138;2023-04-25T15:12:32;10.20;91.70
39931;DHT22;26635;-35.248;149.138;2023-04-25T15:15:03;10.10;91.90
39931;DHT22;26635;-35.248;149.138;2023-04-25T15:17:35;10.10;91.90
39931;DHT22;26635;-35.248;149.138;2023-04-25T15:20:09;10.10;92.20
39931;DHT22;26635;-35.248;149.138;2023-04-25T15:22:43;10.00;91.40
39931;DHT22;26635;-35.248;149.138;2023-04-25T15:25:18;10.00;92.30
39931;DHT22;26635;-35.248;149.138;2023-04-25T15:27:49;10.00;91.80